Kasane, Botswana

10:26 AM CAT on August 31, 2014 (GMT +0200)
Kasane | Change Station
CLOSE
Current Station
Airport
Location: Kasane,
Elevation: 3281 ft
Nearby Weather Stations

Elev 3281 ft 17.83 °S, 25.16 °E | Updated 26 minutes ago

Clear
Clear
68 °F
Feels Like 68 °F
N
18
Wind Variable Wind from East

Today
High -- | Low -- °F
--% Chance of Precip.
Yesterday
High -- | Low -- °F
Precip. -- in
6:27 AM 6:12 PM
Waxing Crescent, 29% visible
Pressure 30.21 in
Visibility -9999.0 miles
Clouds
Dew Point 37 °F
Humidity 33%
Rainfall 0.00 in
Snow Depth Not available.
UV Not available.
Pollen Not available.
Air Quality Not available.
Flu Activity Not available.
METAR FBKE 310800Z 10016KT CAVOK 20/03 Q1023

More Conditions Fewer Conditions

Pressure 30.21 in
Visibility -9999.0 miles
Clouds
Dew Point 37 °F
Humidity 33%
Rainfall 0.00 in
Snow Depth Not available.
UV Not available.
Pollen Not available.
Air Quality Not available.
Flu Activity Not available.
METAR FBKE 310800Z 10016KT CAVOK 20/03 Q1023

More Conditions Fewer Conditions

10-Day Weather Forecast

Almanac

Astronomy

Aug. 31, 2014 Rise Set
Actual Time 6:27 AM CAT 6:12 PM CAT
Civil Twilight 6:05 AM CAT 6:34 PM CAT
Nautical Twilight 5:40 AM CAT 6:59 PM CAT
Astronomical Twilight 5:15 AM CAT 7:24 PM CAT
Moon 10:05 AM CAT 11:08 PM CAT
Length of Visible Light 12h 28m
Length of Day
11h 44m
Tomorrow will be 0m 56s longer.
Waxing Crescent, 29% of the Moon is Illuminated
Today
Waxing Crescent
Sep 2
First Quarter
Sep 8
Full
Sep 15
Last Quarter
Sep 24
New

Yesterday's Extremes

Country Highs Country Lows

Community

WunderPhotos

Upload Photos

1,748,820 photos uploaded!

Nearby

Snow Depth

Not available.

Earthquake Activity

City Distance Mag. Time & Date
No recent earthquake activity has been reported nearby.
Minimum magnitude displayed is 2.5.

Coastal Water Temperatures

Place Temperature
No Stations Reporting

Nearby Weather Stations